sensor_id;sensor_type;location;lat;lon;timestamp;P1;durP1;ratioP1;P2;durP2;ratioP2
11203;SDS011;5659;49.408;11.116;2023-07-20T00:01:45;8.57;;;5.20;;
11203;SDS011;5659;49.408;11.116;2023-07-20T00:04:12;9.35;;;5.28;;
11203;SDS011;5659;49.408;11.116;2023-07-20T00:06:39;9.20;;;5.38;;
11203;SDS011;5659;49.408;11.116;2023-07-20T00:09:07;7.80;;;5.38;;
11203;SDS011;5659;49.408;11.116;2023-07-20T00:11:35;7.63;;;4.72;;
11203;SDS011;5659;49.408;11.116;2023-07-20T00:14:02;8.25;;;5.15;;
11203;SDS011;5659;49.408;11.116;2023-07-20T00:16:29;7.25;;;4.28;;
11203;SDS011;5659;49.408;11.116;2023-07-20T00:18:55;6.53;;;5.13;;
11203;SDS011;5659;49.408;11.116;2023-07-20T00:21:20;9.10;;;5.15;;
11203;SDS011;5659;49.408;11.116;2023-07-20T00:23:46;7.68;;;5.15;;
11203;SDS011;5659;49.408;11.116;2023-07-20T00:26:12;8.52;;;5.07;;
11203;SDS011;5659;49.408;11.116;2023-07-20T00:28:38;7.72;;;5.07;;
11203;SDS011;5659;49.408;11.116;2023-07-20T00:31:04;9.35;;;5.13;;
11203;SDS011;5659;49.408;11.116;2023-07-20T00:33:30;9.00;;;5.07;;
11203;SDS011;5659;49.408;11.116;2023-07-20T00:35:56;7.40;;;5.10;;
11203;SDS011;5659;49.408;11.116;2023-07-20T00:38:22;8.02;;;5.20;;
11203;SDS011;5659;49.408;11.116;2023-07-20T00:40:48;11.38;;;5.40;;
11203;SDS011;5659;49.408;11.116;2023-07-20T00:43:14;8.43;;;5.13;;
11203;SDS011;5659;49.408;11.116;2023-07-20T00:45:40;6.82;;;5.38;;
11203;SDS011;5659;49.408;11.116;2023-07-20T00:48:07;7.47;;;5.25;;
11203;SDS011;5659;49.408;11.116;2023-07-20T00:50:33;8.38;;;5.57;;
11203;SDS011;5659;49.408;11.116;2023-07-20T00:53:00;8.77;;;5.75;;
11203;SDS011;5659;49.408;11.116;2023-07-20T00:55:26;10.77;;;5.85;;
11203;SDS011;5659;49.408;11.116;2023-07-20T00:57:52;13.45;;;5.90;;
11203;SDS011;5659;49.408;11.116;2023-07-20T01:00:18;7.68;;;5.47;;
11203;SDS011;5659;49.408;11.116;2023-07-20T01:02:45;15.70;;;6.07;;
11203;SDS011;5659;49.408;11.116;2023-07-20T01:05:11;11.13;;;6.40;;
11203;SDS011;5659;49.408;11.116;2023-07-20T01:07:55;8.70;;;5.93;;
11203;SDS011;5659;49.408;11.116;2023-07-20T01:10:35;11.20;;;5.68;;
11203;SDS011;5659;49.408;11.116;2023-07-20T01:13:02;11.80;;;5.95;;
11203;SDS011;5659;49.408;11.116;2023-07-20T01:15:29;9.23;;;6.15;;
11203;SDS011;5659;49.408;11.116;2023-07-20T01:17:55;11.57;;;6.25;;
11203;SDS011;5659;49.408;11.116;2023-07-20T01:20:21;10.07;;;6.55;;
11203;SDS011;5659;49.408;11.116;2023-07-20T01:23:06;9.65;;;6.30;;
11203;SDS011;5659;49.408;11.116;2023-07-20T01:30:35;11.50;;;6.75;;
11203;SDS011;5659;49.408;11.116;2023-07-20T01:33:08;9.05;;;6.32;;
11203;SDS011;5659;49.408;11.116;2023-07-20T01:35:34;13.77;;;6.78;;
11203;SDS011;5659;49.408;11.116;2023-07-20T01:38:01;11.20;;;6.60;;
11203;SDS011;5659;49.408;11.116;2023-07-20T01:40:28;13.13;;;6.50;;
11203;SDS011;5659;49.408;11.116;2023-07-20T01:42:54;16.25;;;6.90;;
11203;SDS011;5659;49.408;11.116;2023-07-20T01:45:20;12.27;;;6.55;;
11203;SDS011;5659;49.408;11.116;2023-07-20T01:47:46;8.57;;;5.22;;
11203;SDS011;5659;49.408;11.116;2023-07-20T01:50:12;12.00;;;6.20;;
11203;SDS011;5659;49.408;11.116;2023-07-20T01:52:38;9.15;;;5.88;;
11203;SDS011;5659;49.408;11.116;2023-07-20T01:55:04;7.45;;;5.63;;
11203;SDS011;5659;49.408;11.116;2023-07-20T01:57:30;8.25;;;6.30;;
11203;SDS011;5659;49.408;11.116;2023-07-20T01:59:56;11.45;;;7.00;;
11203;SDS011;5659;49.408;11.116;2023-07-20T02:02:23;25.35;;;9.30;;
11203;SDS011;5659;49.408;11.116;2023-07-20T02:04:50;9.70;;;6.85;;
11203;SDS011;5659;49.408;11.116;2023-07-20T02:07:15;52.10;;;13.05;;
11203;SDS011;5659;49.408;11.116;2023-07-20T02:09:41;38.72;;;11.63;;
11203;SDS011;5659;49.408;11.116;2023-07-20T02:12:08;18.45;;;7.72;;
11203;SDS011;5659;49.408;11.116;2023-07-20T02:14:34;12.63;;;7.20;;
11203;SDS011;5659;49.408;11.116;2023-07-20T02:16:59;10.70;;;6.13;;
11203;SDS011;5659;49.408;11.116;2023-07-20T02:19:26;13.25;;;6.03;;
11203;SDS011;5659;49.408;11.116;2023-07-20T02:21:52;13.90;;;6.43;;
11203;SDS011;5659;49.408;11.116;2023-07-20T02:24:18;19.45;;;7.65;;
11203;SDS011;5659;49.408;11.116;2023-07-20T02:26:44;14.45;;;7.13;;
11203;SDS011;5659;49.408;11.116;2023-07-20T02:29:10;10.43;;;6.72;;
11203;SDS011;5659;49.408;11.116;2023-07-20T02:31:39;11.15;;;6.60;;
11203;SDS011;5659;49.408;11.116;2023-07-20T02:34:07;11.30;;;6.95;;
11203;SDS011;5659;49.408;11.116;2023-07-20T02:36:34;12.20;;;6.20;;
11203;SDS011;5659;49.408;11.116;2023-07-20T02:39:00;14.90;;;6.85;;
11203;SDS011;5659;49.408;11.116;2023-07-20T02:41:29;11.48;;;6.35;;
11203;SDS011;5659;49.408;11.116;2023-07-20T02:43:55;13.13;;;6.38;;
11203;SDS011;5659;49.408;11.116;2023-07-20T02:46:21;9.48;;;5.93;;
11203;SDS011;5659;49.408;11.116;2023-07-20T02:48:47;13.57;;;6.53;;
11203;SDS011;5659;49.408;11.116;2023-07-20T02:51:13;10.02;;;6.50;;
11203;SDS011;5659;49.408;11.116;2023-07-20T02:53:39;8.25;;;6.05;;
11203;SDS011;5659;49.408;11.116;2023-07-20T02:56:06;12.07;;;5.82;;
11203;SDS011;5659;49.408;11.116;2023-07-20T02:58:35;11.80;;;5.75;;
11203;SDS011;5659;49.408;11.116;2023-07-20T03:01:08;10.23;;;5.95;;
11203;SDS011;5659;49.408;11.116;2023-07-20T03:03:34;9.50;;;6.03;;
11203;SDS011;5659;49.408;11.116;2023-07-20T03:06:06;11.35;;;5.47;;
11203;SDS011;5659;49.408;11.116;2023-07-20T03:08:34;8.73;;;5.85;;
11203;SDS011;5659;49.408;11.116;2023-07-20T03:11:01;17.35;;;6.25;;
11203;SDS011;5659;49.408;11.116;2023-07-20T03:13:27;21.63;;;6.18;;
11203;SDS011;5659;49.408;11.116;2023-07-20T03:15:53;11.27;;;6.20;;
11203;SDS011;5659;49.408;11.116;2023-07-20T03:18:19;9.00;;;5.32;;
11203;SDS011;5659;49.408;11.116;2023-07-20T03:20:45;9.93;;;5.32;;
11203;SDS011;5659;49.408;11.116;2023-07-20T03:23:11;11.98;;;5.88;;
11203;SDS011;5659;49.408;11.116;2023-07-20T03:25:37;11.15;;;5.25;;
11203;SDS011;5659;49.408;11.116;2023-07-20T03:28:03;11.70;;;5.80;;
11203;SDS011;5659;49.408;11.116;2023-07-20T03:30:29;10.70;;;5.90;;
11203;SDS011;5659;49.408;11.116;2023-07-20T03:32:55;12.70;;;5.55;;
11203;SDS011;5659;49.408;11.116;2023-07-20T03:35:21;8.52;;;5.55;;
11203;SDS011;5659;49.408;11.116;2023-07-20T03:37:48;8.65;;;5.28;;
11203;SDS011;5659;49.408;11.116;2023-07-20T03:40:14;8.90;;;5.22;;
11203;SDS011;5659;49.408;11.116;2023-07-20T03:42:41;14.27;;;6.00;;
11203;SDS011;5659;49.408;11.116;2023-07-20T03:45:07;8.73;;;5.38;;
11203;SDS011;5659;49.408;11.116;2023-07-20T03:47:33;10.90;;;5.38;;
11203;SDS011;5659;49.408;11.116;2023-07-20T03:49:59;11.50;;;5.60;;
11203;SDS011;5659;49.408;11.116;2023-07-20T03:52:25;6.70;;;4.80;;
11203;SDS011;5659;49.408;11.116;2023-07-20T03:54:51;14.02;;;5.57;;
11203;SDS011;5659;49.408;11.116;2023-07-20T03:57:17;13.82;;;5.68;;
11203;SDS011;5659;49.408;11.116;2023-07-20T03:59:46;9.57;;;5.40;;
11203;SDS011;5659;49.408;11.116;2023-07-20T04:02:12;10.13;;;5.60;;
11203;SDS011;5659;49.408;11.116;2023-07-20T04:04:38;12.90;;;5.80;;
11203;SDS011;5659;49.408;11.116;2023-07-20T04:07:04;10.63;;;5.55;;
11203;SDS011;5659;49.408;11.116;2023-07-20T04:09:31;7.82;;;5.53;;
11203;SDS011;5659;49.408;11.116;2023-07-20T04:11:57;10.25;;;5.45;;
11203;SDS011;5659;49.408;11.116;2023-07-20T04:14:23;15.18;;;5.72;;
11203;SDS011;5659;49.408;11.116;2023-07-20T04:16:49;7.97;;;5.35;;
11203;SDS011;5659;49.408;11.116;2023-07-20T04:19:16;15.35;;;5.72;;
11203;SDS011;5659;49.408;11.116;2023-07-20T04:21:43;9.43;;;5.43;;
11203;SDS011;5659;49.408;11.116;2023-07-20T04:24:09;15.32;;;5.57;;
11203;SDS011;5659;49.408;11.116;2023-07-20T04:26:35;12.35;;;5.40;;
11203;SDS011;5659;49.408;11.116;2023-07-20T04:29:01;13.82;;;5.93;;
11203;SDS011;5659;49.408;11.116;2023-07-20T04:31:28;11.63;;;5.28;;
11203;SDS011;5659;49.408;11.116;2023-07-20T04:33:57;11.50;;;5.68;;
11203;SDS011;5659;49.408;11.116;2023-07-20T04:36:23;9.60;;;5.30;;
11203;SDS011;5659;49.408;11.116;2023-07-20T04:38:49;14.82;;;5.22;;
11203;SDS011;5659;49.408;11.116;2023-07-20T04:41:15;29.58;;;6.47;;
11203;SDS011;5659;49.408;11.116;2023-07-20T04:43:43;10.98;;;5.65;;
11203;SDS011;5659;49.408;11.116;2023-07-20T04:46:10;8.18;;;5.03;;
11203;SDS011;5659;49.408;11.116;2023-07-20T04:48:36;10.43;;;5.35;;
11203;SDS011;5659;49.408;11.116;2023-07-20T04:51:02;15.75;;;5.00;;
11203;SDS011;5659;49.408;11.116;2023-07-20T04:53:28;12.52;;;5.53;;
11203;SDS011;5659;49.408;11.116;2023-07-20T04:55:56;10.73;;;5.30;;
11203;SDS011;5659;49.408;11.116;2023-07-20T04:58:22;20.00;;;5.93;;
11203;SDS011;5659;49.408;11.116;2023-07-20T05:00:48;11.27;;;5.32;;
11203;SDS011;5659;49.408;11.116;2023-07-20T05:03:14;13.45;;;5.30;;
11203;SDS011;5659;49.408;11.116;2023-07-20T05:05:40;14.43;;;4.75;;
11203;SDS011;5659;49.408;11.116;2023-07-20T05:08:06;13.82;;;5.32;;
11203;SDS011;5659;49.408;11.116;2023-07-20T05:10:32;15.13;;;5.43;;
11203;SDS011;5659;49.408;11.116;2023-07-20T05:12:59;16.48;;;5.03;;
11203;SDS011;5659;49.408;11.116;2023-07-20T05:15:25;12.23;;;5.13;;
11203;SDS011;5659;49.408;11.116;2023-07-20T05:17:51;7.90;;;4.93;;
11203;SDS011;5659;49.408;11.116;2023-07-20T05:20:17;16.20;;;5.35;;
11203;SDS011;5659;49.408;11.116;2023-07-20T05:22:43;9.65;;;4.88;;
11203;SDS011;5659;49.408;11.116;2023-07-20T05:25:09;9.60;;;4.60;;
11203;SDS011;5659;49.408;11.116;2023-07-20T05:27:36;15.05;;;4.30;;
11203;SDS011;5659;49.408;11.116;2023-07-20T05:30:02;9.43;;;4.38;;
11203;SDS011;5659;49.408;11.116;2023-07-20T05:32:28;10.27;;;4.40;;
11203;SDS011;5659;49.408;11.116;2023-07-20T05:34:55;11.38;;;4.70;;
11203;SDS011;5659;49.408;11.116;2023-07-20T05:37:21;14.07;;;4.63;;
11203;SDS011;5659;49.408;11.116;2023-07-20T05:39:47;13.25;;;4.72;;
11203;SDS011;5659;49.408;11.116;2023-07-20T05:42:13;21.27;;;5.50;;
11203;SDS011;5659;49.408;11.116;2023-07-20T05:44:39;8.77;;;4.05;;
11203;SDS011;5659;49.408;11.116;2023-07-20T05:47:05;12.63;;;4.70;;
11203;SDS011;5659;49.408;11.116;2023-07-20T05:49:31;18.65;;;4.70;;
11203;SDS011;5659;49.408;11.116;2023-07-20T05:51:57;10.57;;;4.38;;
11203;SDS011;5659;49.408;11.116;2023-07-20T05:54:23;14.35;;;4.13;;
11203;SDS011;5659;49.408;11.116;2023-07-20T05:56:50;13.23;;;4.10;;
11203;SDS011;5659;49.408;11.116;2023-07-20T05:59:16;13.02;;;3.92;;
11203;SDS011;5659;49.408;11.116;2023-07-20T06:01:43;12.75;;;3.83;;
11203;SDS011;5659;49.408;11.116;2023-07-20T06:04:09;21.95;;;4.35;;
11203;SDS011;5659;49.408;11.116;2023-07-20T06:06:35;14.68;;;3.50;;
11203;SDS011;5659;49.408;11.116;2023-07-20T06:09:01;15.82;;;3.80;;
11203;SDS011;5659;49.408;11.116;2023-07-20T06:11:29;10.43;;;3.70;;
11203;SDS011;5659;49.408;11.116;2023-07-20T06:13:56;8.95;;;3.42;;
11203;SDS011;5659;49.408;11.116;2023-07-20T06:16:21;9.82;;;3.58;;
11203;SDS011;5659;49.408;11.116;2023-07-20T06:18:47;8.85;;;3.17;;
11203;SDS011;5659;49.408;11.116;2023-07-20T06:21:13;10.57;;;3.53;;
11203;SDS011;5659;49.408;11.116;2023-07-20T06:23:40;10.32;;;3.55;;
11203;SDS011;5659;49.408;11.116;2023-07-20T06:26:06;10.40;;;3.83;;
11203;SDS011;5659;49.408;11.116;2023-07-20T06:28:32;8.55;;;3.75;;
11203;SDS011;5659;49.408;11.116;2023-07-20T06:30:59;8.32;;;3.20;;
11203;SDS011;5659;49.408;11.116;2023-07-20T06:33:25;9.55;;;3.72;;
11203;SDS011;5659;49.408;11.116;2023-07-20T06:35:52;7.78;;;3.00;;
11203;SDS011;5659;49.408;11.116;2023-07-20T06:38:18;12.02;;;3.65;;
11203;SDS011;5659;49.408;11.116;2023-07-20T06:40:45;11.68;;;3.13;;
11203;SDS011;5659;49.408;11.116;2023-07-20T06:43:11;9.65;;;4.05;;
11203;SDS011;5659;49.408;11.116;2023-07-20T06:45:37;8.40;;;3.55;;
11203;SDS011;5659;49.408;11.116;2023-07-20T06:48:03;8.23;;;3.80;;
11203;SDS011;5659;49.408;11.116;2023-07-20T06:50:29;9.25;;;4.10;;
11203;SDS011;5659;49.408;11.116;2023-07-20T06:52:55;11.65;;;3.80;;
11203;SDS011;5659;49.408;11.116;2023-07-20T06:55:22;13.05;;;4.13;;
11203;SDS011;5659;49.408;11.116;2023-07-20T06:57:48;13.95;;;3.95;;
11203;SDS011;5659;49.408;11.116;2023-07-20T07:00:14;9.63;;;3.72;;
11203;SDS011;5659;49.408;11.116;2023-07-20T07:02:40;12.65;;;3.90;;
11203;SDS011;5659;49.408;11.116;2023-07-20T07:05:06;30.75;;;4.20;;
11203;SDS011;5659;49.408;11.116;2023-07-20T07:07:32;15.10;;;4.03;;
11203;SDS011;5659;49.408;11.116;2023-07-20T07:09:58;10.15;;;3.78;;
11203;SDS011;5659;49.408;11.116;2023-07-20T07:12:24;16.77;;;4.10;;
11203;SDS011;5659;49.408;11.116;2023-07-20T07:14:50;15.88;;;3.55;;
11203;SDS011;5659;49.408;11.116;2023-07-20T07:17:17;8.23;;;3.72;;
11203;SDS011;5659;49.408;11.116;2023-07-20T07:19:43;7.75;;;3.30;;
11203;SDS011;5659;49.408;11.116;2023-07-20T07:22:09;8.90;;;3.28;;
11203;SDS011;5659;49.408;11.116;2023-07-20T07:24:36;8.85;;;3.20;;
11203;SDS011;5659;49.408;11.116;2023-07-20T07:27:02;6.38;;;3.42;;
11203;SDS011;5659;49.408;11.116;2023-07-20T07:29:29;7.80;;;3.33;;
11203;SDS011;5659;49.408;11.116;2023-07-20T07:31:55;8.73;;;3.17;;
11203;SDS011;5659;49.408;11.116;2023-07-20T07:34:21;10.73;;;3.08;;
11203;SDS011;5659;49.408;11.116;2023-07-20T07:36:47;7.72;;;3.00;;
11203;SDS011;5659;49.408;11.116;2023-07-20T07:39:13;10.18;;;3.50;;
11203;SDS011;5659;49.408;11.116;2023-07-20T07:41:39;8.48;;;2.95;;
11203;SDS011;5659;49.408;11.116;2023-07-20T07:44:05;7.18;;;3.05;;
11203;SDS011;5659;49.408;11.116;2023-07-20T07:46:31;5.50;;;2.60;;
11203;SDS011;5659;49.408;11.116;2023-07-20T07:48:58;7.45;;;2.80;;
11203;SDS011;5659;49.408;11.116;2023-07-20T07:51:24;9.10;;;2.95;;
11203;SDS011;5659;49.408;11.116;2023-07-20T07:53:52;6.40;;;2.80;;
11203;SDS011;5659;49.408;11.116;2023-07-20T07:56:18;9.10;;;2.75;;
11203;SDS011;5659;49.408;11.116;2023-07-20T07:58:48;3.72;;;2.58;;
11203;SDS011;5659;49.408;11.116;2023-07-20T08:01:14;5.78;;;2.67;;
11203;SDS011;5659;49.408;11.116;2023-07-20T08:03:40;7.93;;;3.03;;
11203;SDS011;5659;49.408;11.116;2023-07-20T08:06:06;11.10;;;2.95;;
11203;SDS011;5659;49.408;11.116;2023-07-20T08:08:32;8.90;;;2.45;;
11203;SDS011;5659;49.408;11.116;2023-07-20T08:10:58;20.75;;;3.30;;
11203;SDS011;5659;49.408;11.116;2023-07-20T08:13:25;8.90;;;3.00;;
11203;SDS011;5659;49.408;11.116;2023-07-20T08:15:51;9.88;;;2.70;;
11203;SDS011;5659;49.408;11.116;2023-07-20T08:18:17;5.97;;;2.65;;
11203;SDS011;5659;49.408;11.116;2023-07-20T08:20:44;6.95;;;2.45;;
11203;SDS011;5659;49.408;11.116;2023-07-20T08:23:10;5.40;;;2.38;;
11203;SDS011;5659;49.408;11.116;2023-07-20T08:25:36;10.70;;;2.42;;
11203;SDS011;5659;49.408;11.116;2023-07-20T08:28:04;4.68;;;2.20;;
11203;SDS011;5659;49.408;11.116;2023-07-20T08:30:39;7.30;;;2.30;;
11203;SDS011;5659;49.408;11.116;2023-07-20T08:33:05;6.15;;;2.13;;
11203;SDS011;5659;49.408;11.116;2023-07-20T08:35:31;7.90;;;2.38;;
11203;SDS011;5659;49.408;11.116;2023-07-20T08:37:57;8.98;;;2.75;;
11203;SDS011;5659;49.408;11.116;2023-07-20T08:40:23;9.90;;;2.25;;
11203;SDS011;5659;49.408;11.116;2023-07-20T08:42:49;7.38;;;2.63;;
11203;SDS011;5659;49.408;11.116;2023-07-20T08:45:15;8.38;;;2.65;;
11203;SDS011;5659;49.408;11.116;2023-07-20T08:47:42;5.55;;;2.28;;
11203;SDS011;5659;49.408;11.116;2023-07-20T08:50:09;6.22;;;2.17;;
11203;SDS011;5659;49.408;11.116;2023-07-20T08:52:36;5.22;;;2.28;;
11203;SDS011;5659;49.408;11.116;2023-07-20T08:55:02;2.92;;;2.10;;
11203;SDS011;5659;49.408;11.116;2023-07-20T08:57:29;3.35;;;2.05;;
11203;SDS011;5659;49.408;11.116;2023-07-20T08:59:56;5.78;;;1.75;;
11203;SDS011;5659;49.408;11.116;2023-07-20T09:02:22;4.28;;;2.20;;
11203;SDS011;5659;49.408;11.116;2023-07-20T09:04:51;4.72;;;2.25;;
11203;SDS011;5659;49.408;11.116;2023-07-20T09:07:17;7.63;;;2.28;;
11203;SDS011;5659;49.408;11.116;2023-07-20T09:09:43;7.68;;;2.35;;
11203;SDS011;5659;49.408;11.116;2023-07-20T09:12:13;5.30;;;1.98;;
11203;SDS011;5659;49.408;11.116;2023-07-20T09:14:39;4.95;;;2.05;;
11203;SDS011;5659;49.408;11.116;2023-07-20T09:17:08;3.22;;;2.03;;
11203;SDS011;5659;49.408;11.116;2023-07-20T09:19:38;3.97;;;2.00;;
11203;SDS011;5659;49.408;11.116;2023-07-20T09:22:04;3.55;;;1.63;;
11203;SDS011;5659;49.408;11.116;2023-07-20T09:24:31;3.40;;;1.92;;
11203;SDS011;5659;49.408;11.116;2023-07-20T09:26:57;4.15;;;2.10;;
11203;SDS011;5659;49.408;11.116;2023-07-20T09:29:28;6.50;;;1.70;;
11203;SDS011;5659;49.408;11.116;2023-07-20T09:32:04;3.58;;;1.90;;
11203;SDS011;5659;49.408;11.116;2023-07-20T09:34:31;7.90;;;2.17;;
11203;SDS011;5659;49.408;11.116;2023-07-20T09:36:57;6.78;;;2.17;;
11203;SDS011;5659;49.408;11.116;2023-07-20T09:39:23;5.97;;;2.00;;
11203;SDS011;5659;49.408;11.116;2023-07-20T09:41:50;5.95;;;1.98;;
11203;SDS011;5659;49.408;11.116;2023-07-20T09:44:17;8.02;;;1.70;;
11203;SDS011;5659;49.408;11.116;2023-07-20T09:46:47;3.92;;;1.85;;
11203;SDS011;5659;49.408;11.116;2023-07-20T09:49:14;4.13;;;1.77;;
11203;SDS011;5659;49.408;11.116;2023-07-20T09:51:40;5.05;;;2.03;;
11203;SDS011;5659;49.408;11.116;2023-07-20T09:54:07;3.30;;;1.73;;
11203;SDS011;5659;49.408;11.116;2023-07-20T09:56:33;3.40;;;1.60;;
11203;SDS011;5659;49.408;11.116;2023-07-20T09:59:00;4.45;;;1.55;;
11203;SDS011;5659;49.408;11.116;2023-07-20T10:01:26;2.72;;;1.65;;
11203;SDS011;5659;49.408;11.116;2023-07-20T10:03:53;2.88;;;1.38;;
11203;SDS011;5659;49.408;11.116;2023-07-20T10:06:20;2.10;;;1.40;;
11203;SDS011;5659;49.408;11.116;2023-07-20T10:08:50;4.28;;;1.67;;
11203;SDS011;5659;49.408;11.116;2023-07-20T10:11:18;4.80;;;1.75;;
11203;SDS011;5659;49.408;11.116;2023-07-20T10:13:44;3.45;;;1.55;;
11203;SDS011;5659;49.408;11.116;2023-07-20T10:16:14;2.33;;;1.33;;
11203;SDS011;5659;49.408;11.116;2023-07-20T10:21:06;4.22;;;1.83;;
11203;SDS011;5659;49.408;11.116;2023-07-20T10:23:33;4.57;;;1.63;;
11203;SDS011;5659;49.408;11.116;2023-07-20T10:26:00;2.25;;;1.50;;
11203;SDS011;5659;49.408;11.116;2023-07-20T10:28:27;3.53;;;1.38;;
11203;SDS011;5659;49.408;11.116;2023-07-20T10:30:53;1.60;;;1.40;;
11203;SDS011;5659;49.408;11.116;2023-07-20T10:33:19;4.28;;;1.50;;
11203;SDS011;5659;49.408;11.116;2023-07-20T10:38:18;2.15;;;1.33;;
11203;SDS011;5659;49.408;11.116;2023-07-20T10:40:53;2.80;;;1.23;;
11203;SDS011;5659;49.408;11.116;2023-07-20T10:43:19;2.83;;;1.58;;
11203;SDS011;5659;49.408;11.116;2023-07-20T10:45:49;2.40;;;1.58;;
11203;SDS011;5659;49.408;11.116;2023-07-20T10:48:16;5.72;;;1.42;;
11203;SDS011;5659;49.408;11.116;2023-07-20T10:50:44;3.40;;;1.23;;
11203;SDS011;5659;49.408;11.116;2023-07-20T10:53:13;5.93;;;1.52;;
11203;SDS011;5659;49.408;11.116;2023-07-20T10:55:40;4.40;;;1.80;;
11203;SDS011;5659;49.408;11.116;2023-07-20T11:00:34;7.43;;;1.45;;
11203;SDS011;5659;49.408;11.116;2023-07-20T11:03:00;1.58;;;1.30;;
11203;SDS011;5659;49.408;11.116;2023-07-20T11:05:33;2.35;;;1.33;;
11203;SDS011;5659;49.408;11.116;2023-07-20T11:08:03;6.28;;;1.40;;
11203;SDS011;5659;49.408;11.116;2023-07-20T11:10:30;2.70;;;1.42;;
11203;SDS011;5659;49.408;11.116;2023-07-20T11:15:44;2.17;;;1.30;;
11203;SDS011;5659;49.408;11.116;2023-07-20T11:18:11;2.08;;;1.63;;
11203;SDS011;5659;49.408;11.116;2023-07-20T11:20:37;1.98;;;1.40;;
11203;SDS011;5659;49.408;11.116;2023-07-20T11:23:03;6.13;;;1.58;;
11203;SDS011;5659;49.408;11.116;2023-07-20T11:25:37;3.63;;;1.60;;
11203;SDS011;5659;49.408;11.116;2023-07-20T11:28:06;2.22;;;1.23;;
11203;SDS011;5659;49.408;11.116;2023-07-20T11:30:32;2.35;;;1.60;;
11203;SDS011;5659;49.408;11.116;2023-07-20T11:32:59;3.65;;;1.20;;
11203;SDS011;5659;49.408;11.116;2023-07-20T11:35:25;2.22;;;1.30;;
11203;SDS011;5659;49.408;11.116;2023-07-20T11:37:51;2.35;;;1.17;;
11203;SDS011;5659;49.408;11.116;2023-07-20T11:40:17;3.17;;;1.33;;
11203;SDS011;5659;49.408;11.116;2023-07-20T11:42:43;6.53;;;1.20;;
11203;SDS011;5659;49.408;11.116;2023-07-20T11:45:10;2.90;;;1.25;;
11203;SDS011;5659;49.408;11.116;2023-07-20T11:47:39;1.88;;;1.30;;
11203;SDS011;5659;49.408;11.116;2023-07-20T11:50:07;9.35;;;1.40;;
11203;SDS011;5659;49.408;11.116;2023-07-20T11:52:33;2.60;;;1.30;;
11203;SDS011;5659;49.408;11.116;2023-07-20T11:54:59;1.63;;;1.30;;
11203;SDS011;5659;49.408;11.116;2023-07-20T11:57:25;2.58;;;1.30;;
11203;SDS011;5659;49.408;11.116;2023-07-20T12:00:04;16.88;;;1.80;;
11203;SDS011;5659;49.408;11.116;2023-07-20T12:02:35;11.48;;;1.42;;
11203;SDS011;5659;49.408;11.116;2023-07-20T12:05:03;10.10;;;1.88;;
11203;SDS011;5659;49.408;11.116;2023-07-20T12:07:29;3.17;;;1.10;;
11203;SDS011;5659;49.408;11.116;2023-07-20T12:12:31;7.43;;;1.50;;
11203;SDS011;5659;49.408;11.116;2023-07-20T12:15:12;3.40;;;1.55;;
11203;SDS011;5659;49.408;11.116;2023-07-20T12:17:41;5.88;;;1.70;;
11203;SDS011;5659;49.408;11.116;2023-07-20T12:20:07;5.38;;;1.38;;
11203;SDS011;5659;49.408;11.116;2023-07-20T12:22:38;6.55;;;1.35;;
11203;SDS011;5659;49.408;11.116;2023-07-20T12:25:07;4.05;;;1.30;;
11203;SDS011;5659;49.408;11.116;2023-07-20T12:27:35;2.25;;;1.05;;
11203;SDS011;5659;49.408;11.116;2023-07-20T12:30:01;3.38;;;1.23;;
11203;SDS011;5659;49.408;11.116;2023-07-20T12:32:29;6.00;;;1.38;;
11203;SDS011;5659;49.408;11.116;2023-07-20T12:34:55;1.27;;;1.10;;
11203;SDS011;5659;49.408;11.116;2023-07-20T12:37:21;1.48;;;1.30;;
11203;SDS011;5659;49.408;11.116;2023-07-20T12:39:47;2.13;;;1.42;;
11203;SDS011;5659;49.408;11.116;2023-07-20T12:42:13;1.45;;;1.20;;
11203;SDS011;5659;49.408;11.116;2023-07-20T12:44:40;1.73;;;1.20;;
11203;SDS011;5659;49.408;11.116;2023-07-20T12:47:06;6.55;;;1.30;;
11203;SDS011;5659;49.408;11.116;2023-07-20T12:49:32;2.33;;;1.08;;
11203;SDS011;5659;49.408;11.116;2023-07-20T12:51:58;1.73;;;1.30;;
11203;SDS011;5659;49.408;11.116;2023-07-20T12:54:24;5.40;;;1.38;;
11203;SDS011;5659;49.408;11.116;2023-07-20T12:56:50;2.53;;;1.40;;
11203;SDS011;5659;49.408;11.116;2023-07-20T12:59:16;13.75;;;1.75;;
11203;SDS011;5659;49.408;11.116;2023-07-20T13:01:42;4.97;;;1.10;;
11203;SDS011;5659;49.408;11.116;2023-07-20T13:04:09;9.30;;;1.40;;
11203;SDS011;5659;49.408;11.116;2023-07-20T13:06:35;1.70;;;1.17;;
11203;SDS011;5659;49.408;11.116;2023-07-20T13:09:01;5.03;;;1.38;;
11203;SDS011;5659;49.408;11.116;2023-07-20T13:11:28;2.30;;;1.20;;
11203;SDS011;5659;49.408;11.116;2023-07-20T13:13:54;3.95;;;1.40;;
11203;SDS011;5659;49.408;11.116;2023-07-20T13:16:20;3.63;;;0.98;;
11203;SDS011;5659;49.408;11.116;2023-07-20T13:18:46;3.15;;;1.20;;
11203;SDS011;5659;49.408;11.116;2023-07-20T13:21:12;9.52;;;2.08;;
11203;SDS011;5659;49.408;11.116;2023-07-20T13:23:38;6.32;;;1.50;;
11203;SDS011;5659;49.408;11.116;2023-07-20T13:26:04;4.72;;;1.40;;
11203;SDS011;5659;49.408;11.116;2023-07-20T13:28:30;1.48;;;1.33;;
11203;SDS011;5659;49.408;11.116;2023-07-20T13:30:56;1.80;;;1.38;;
11203;SDS011;5659;49.408;11.116;2023-07-20T13:33:22;2.92;;;1.60;;
11203;SDS011;5659;49.408;11.116;2023-07-20T13:35:48;4.65;;;1.13;;
11203;SDS011;5659;49.408;11.116;2023-07-20T13:38:14;4.65;;;1.42;;
11203;SDS011;5659;49.408;11.116;2023-07-20T13:40:40;2.72;;;1.50;;
11203;SDS011;5659;49.408;11.116;2023-07-20T13:43:07;4.43;;;1.50;;
11203;SDS011;5659;49.408;11.116;2023-07-20T13:45:33;3.78;;;1.60;;
11203;SDS011;5659;49.408;11.116;2023-07-20T13:47:59;2.50;;;1.30;;
11203;SDS011;5659;49.408;11.116;2023-07-20T13:50:25;2.40;;;1.17;;
11203;SDS011;5659;49.408;11.116;2023-07-20T13:52:53;1.70;;;1.27;;
11203;SDS011;5659;49.408;11.116;2023-07-20T13:55:19;11.70;;;1.52;;
11203;SDS011;5659;49.408;11.116;2023-07-20T13:57:45;1.85;;;1.40;;
11203;SDS011;5659;49.408;11.116;2023-07-20T14:00:11;7.28;;;1.50;;
11203;SDS011;5659;49.408;11.116;2023-07-20T14:02:38;2.75;;;1.33;;
11203;SDS011;5659;49.408;11.116;2023-07-20T14:05:04;2.92;;;1.33;;
11203;SDS011;5659;49.408;11.116;2023-07-20T14:07:30;3.65;;;1.17;;
11203;SDS011;5659;49.408;11.116;2023-07-20T14:09:57;1.95;;;1.30;;
11203;SDS011;5659;49.408;11.116;2023-07-20T14:12:24;1.75;;;1.20;;
11203;SDS011;5659;49.408;11.116;2023-07-20T14:14:50;3.08;;;1.30;;
11203;SDS011;5659;49.408;11.116;2023-07-20T14:17:16;1.58;;;1.30;;
11203;SDS011;5659;49.408;11.116;2023-07-20T14:19:42;1.75;;;1.23;;
11203;SDS011;5659;49.408;11.116;2023-07-20T14:22:08;1.75;;;1.35;;
11203;SDS011;5659;49.408;11.116;2023-07-20T14:24:34;2.75;;;1.30;;
11203;SDS011;5659;49.408;11.116;2023-07-20T14:27:00;2.67;;;1.52;;
11203;SDS011;5659;49.408;11.116;2023-07-20T14:29:26;4.55;;;1.50;;
11203;SDS011;5659;49.408;11.116;2023-07-20T14:31:52;2.17;;;1.40;;
11203;SDS011;5659;49.408;11.116;2023-07-20T14:34:18;2.08;;;1.30;;
11203;SDS011;5659;49.408;11.116;2023-07-20T14:36:45;7.78;;;1.70;;
11203;SDS011;5659;49.408;11.116;2023-07-20T14:39:11;2.45;;;1.20;;
11203;SDS011;5659;49.408;11.116;2023-07-20T14:41:37;3.13;;;1.50;;
11203;SDS011;5659;49.408;11.116;2023-07-20T14:44:03;2.55;;;1.27;;
11203;SDS011;5659;49.408;11.116;2023-07-20T14:46:29;1.52;;;1.13;;
11203;SDS011;5659;49.408;11.116;2023-07-20T14:48:55;2.65;;;1.38;;
11203;SDS011;5659;49.408;11.116;2023-07-20T14:51:21;5.03;;;1.50;;
11203;SDS011;5659;49.408;11.116;2023-07-20T14:53:47;4.20;;;1.40;;
11203;SDS011;5659;49.408;11.116;2023-07-20T14:56:13;1.50;;;1.33;;
11203;SDS011;5659;49.408;11.116;2023-07-20T14:58:39;4.05;;;1.33;;